Time;durP1;ratioP1;P1;durP2;ratioP2;P2;SDS_P1;SDS_P2;PMS_P1;PMS_P2;Temp;Humidity;BMP_temperature;BMP_pressure;BME280_temperature;BME280_humidity;BME280_pressure;Samples;Min_cycle;Max_cycle;Signal;HPM_P1;HPM_P2
2024/04/06 00:01:56;;;;;;;4.13;2.30;;;10.00;99.90;;;;;;4159531;28;20033;-55
2024/04/06 00:03:58;;;;;;;5.47;2.83;;;9.90;99.90;;;;;;4160047;28;20045;-55
2024/04/06 00:05:59;;;;;;;4.10;2.00;;;9.90;99.90;;;;;;4159852;28;20029;-58
2024/04/06 00:08:00;;;;;;;5.60;2.53;;;9.90;99.90;;;;;;4160737;28;20025;-56
2024/04/06 00:10:02;;;;;;;2.93;2.13;;;9.90;99.90;;;;;;4159434;28;20576;-53
2024/04/06 00:12:04;;;;;;;3.87;2.17;;;9.90;99.90;;;;;;4160351;28;20560;-56
2024/04/06 00:14:05;;;;;;;6.37;2.63;;;9.90;99.90;;;;;;4159891;28;20053;-56
2024/04/06 00:16:07;;;;;;;4.33;2.30;;;9.90;99.90;;;;;;4160452;28;20436;-54
2024/04/06 00:18:08;;;;;;;4.47;2.80;;;9.90;99.90;;;;;;4159486;28;20041;-53
2024/04/06 00:20:09;;;;;;;5.47;3.13;;;9.90;99.90;;;;;;4160065;28;20091;-55
2024/04/06 00:22:11;;;;;;;4.23;2.27;;;9.90;99.90;;;;;;4157618;28;20131;-50
2024/04/06 00:24:12;;;;;;;6.33;2.77;;;9.80;99.90;;;;;;4159485;28;20076;-56
2024/04/06 00:26:13;;;;;;;3.20;2.13;;;9.80;99.90;;;;;;4159594;28;20100;-56
2024/04/06 00:28:15;;;;;;;5.60;2.93;;;9.70;99.90;;;;;;4159631;28;20074;-56
2024/04/06 00:30:16;;;;;;;4.90;2.67;;;9.70;99.90;;;;;;4160196;28;20107;-53
2024/04/06 00:32:17;;;;;;;4.30;2.53;;;9.70;99.90;;;;;;4159042;28;20378;-52
2024/04/06 00:34:19;;;;;;;6.00;2.97;;;9.70;99.90;;;;;;4144437;28;20184;-57
2024/04/06 00:36:20;;;;;;;4.53;2.57;;;9.60;99.90;;;;;;4142895;28;20541;-54
2024/04/06 00:38:21;;;;;;;3.97;2.37;;;9.70;99.90;;;;;;4159192;28;20083;-58
2024/04/06 00:40:22;;;;;;;10.80;3.30;;;9.60;99.90;;;;;;4159114;28;20137;-57
2024/04/06 00:42:24;;;;;;;5.73;3.40;;;9.70;99.90;;;;;;4160888;28;20571;-57
2024/04/06 00:44:25;;;;;;;4.07;3.00;;;9.60;99.90;;;;;;4159571;28;20568;-57
2024/04/06 00:46:27;;;;;;;6.80;3.33;;;9.60;99.90;;;;;;4164208;28;20104;-54
2024/04/06 00:48:28;;;;;;;5.27;3.20;;;9.60;99.90;;;;;;4159631;28;20034;-54
2024/04/06 00:50:30;;;;;;;6.90;3.50;;;9.50;99.90;;;;;;4160082;28;20490;-56
2024/04/06 00:52:32;;;;;;;4.70;3.30;;;9.50;99.90;;;;;;4158758;28;20541;-58
2024/04/06 00:54:34;;;;;;;5.50;3.63;;;9.50;99.90;;;;;;4161304;28;20066;-54
2024/04/06 00:56:36;;;;;;;5.27;3.30;;;9.40;99.90;;;;;;4162347;28;20549;-55
2024/04/06 00:58:38;;;;;;;7.50;3.97;;;9.40;99.90;;;;;;4162525;28;20119;-56
2024/04/06 01:00:39;;;;;;;4.90;3.43;;;9.50;99.90;;;;;;4162797;28;20087;-55
2024/04/06 01:02:40;;;;;;;6.80;3.70;;;9.40;99.90;;;;;;4161395;28;20034;-51
2024/04/06 01:04:42;;;;;;;6.47;3.67;;;9.40;99.90;;;;;;4160421;28;20394;-51
2024/04/06 01:06:43;;;;;;;9.17;4.07;;;9.40;99.90;;;;;;4161886;28;20038;-54
2024/04/06 01:08:44;;;;;;;7.23;3.27;;;9.30;99.90;;;;;;4162594;28;20191;-52
2024/04/06 01:10:46;;;;;;;6.53;3.50;;;9.30;99.90;;;;;;4162089;28;20160;-52
2024/04/06 01:12:48;;;;;;;6.17;3.87;;;9.30;99.90;;;;;;4163205;28;20022;-53
2024/04/06 01:14:49;;;;;;;6.70;3.90;;;9.30;99.90;;;;;;4161927;28;20587;-54
2024/04/06 01:16:50;;;;;;;8.47;4.00;;;9.20;99.90;;;;;;4162502;28;20046;-51
2024/04/06 01:18:51;;;;;;;5.90;4.33;;;9.10;99.90;;;;;;4161913;28;20095;-52
2024/04/06 01:20:57;;;;;;;6.77;4.93;;;9.10;99.90;;;;;;4162437;28;20091;-56
2024/04/06 01:22:58;;;;;;;7.80;4.57;;;9.00;99.90;;;;;;4161683;28;20559;-56
2024/04/06 01:24:59;;;;;;;7.37;4.07;;;8.90;99.90;;;;;;4163043;28;20013;-57
2024/04/06 01:27:01;;;;;;;7.40;4.37;;;8.80;99.90;;;;;;4162008;28;20041;-53
2024/04/06 01:29:02;;;;;;;8.27;4.17;;;8.80;99.90;;;;;;4162217;28;20076;-56
2024/04/06 01:31:03;;;;;;;7.07;4.00;;;8.80;99.90;;;;;;4162312;28;20508;-54
2024/04/06 01:33:04;;;;;;;6.73;4.07;;;8.80;99.90;;;;;;4162098;28;20090;-52
2024/04/06 01:35:06;;;;;;;8.20;4.17;;;8.80;99.90;;;;;;4162864;28;20067;-56
2024/04/06 01:37:07;;;;;;;9.83;5.00;;;8.80;99.90;;;;;;4161551;28;20509;-53
2024/04/06 01:39:09;;;;;;;8.93;4.50;;;8.80;99.90;;;;;;4162214;28;20099;-53
2024/04/06 01:41:10;;;;;;;8.83;4.40;;;8.80;99.90;;;;;;4161435;28;20061;-56
2024/04/06 01:43:12;;;;;;;5.93;4.07;;;8.80;99.90;;;;;;4163473;28;20029;-54
2024/04/06 01:45:13;;;;;;;10.10;4.53;;;8.80;99.90;;;;;;4161197;28;20038;-55
2024/04/06 01:47:14;;;;;;;10.03;4.73;;;8.80;99.90;;;;;;4161978;28;20489;-53
2024/04/06 01:49:15;;;;;;;7.20;3.90;;;8.80;99.90;;;;;;4161099;28;20041;-57
2024/04/06 01:51:16;;;;;;;9.13;4.93;;;8.80;99.90;;;;;;4162494;28;20037;-57
2024/04/06 01:53:18;;;;;;;8.13;4.33;;;8.90;99.90;;;;;;4161046;28;20836;-57
2024/04/06 01:55:19;;;;;;;7.43;5.20;;;8.90;99.90;;;;;;4162451;28;20079;-58
2024/04/06 01:57:20;;;;;;;8.10;4.67;;;8.80;99.90;;;;;;4161818;28;20021;-56
2024/04/06 01:59:22;;;;;;;6.03;4.00;;;8.80;99.90;;;;;;4161491;28;20096;-59
2024/04/06 02:01:23;;;;;;;6.47;3.80;;;8.70;99.90;;;;;;4161580;28;20046;-57
2024/04/06 02:03:24;;;;;;;9.17;5.33;;;8.70;99.90;;;;;;4161817;28;20030;-56
2024/04/06 02:05:25;;;;;;;6.50;4.20;;;8.70;99.90;;;;;;4162666;28;20087;-56
2024/04/06 02:07:27;;;;;;;5.93;3.83;;;8.70;99.90;;;;;;4161220;28;20084;-54
2024/04/06 02:09:28;;;;;;;7.03;4.17;;;8.70;99.90;;;;;;4162070;28;20049;-55
2024/04/06 02:11:29;;;;;;;9.37;4.47;;;8.60;99.90;;;;;;4161330;28;20425;-57
2024/04/06 02:13:32;;;;;;;7.90;4.93;;;8.60;99.90;;;;;;4162783;28;20034;-56
2024/04/06 02:15:35;;;;;;;8.23;4.97;;;8.60;99.90;;;;;;4160732;28;20083;-51
2024/04/06 02:17:37;;;;;;;7.53;4.43;;;8.60;99.90;;;;;;4162093;28;20088;-55
2024/04/06 02:19:39;;;;;;;9.33;4.50;;;8.60;99.90;;;;;;4161206;28;20037;-52
2024/04/06 02:21:40;;;;;;;8.27;3.97;;;8.60;99.90;;;;;;4162350;28;20308;-50
2024/04/06 02:23:41;;;;;;;3.87;2.80;;;8.60;99.90;;;;;;4160503;28;20037;-54
2024/04/06 02:25:42;;;;;;;6.70;3.67;;;8.60;99.90;;;;;;4161719;28;20107;-56
2024/04/06 02:27:43;;;;;;;5.77;3.57;;;8.60;99.90;;;;;;4160550;28;20068;-54
2024/04/06 02:29:45;;;;;;;7.63;3.37;;;8.60;99.90;;;;;;4161465;28;20045;-56
2024/04/06 02:31:46;;;;;;;4.90;3.30;;;8.60;99.90;;;;;;4161446;28;20017;-53
2024/04/06 02:33:48;;;;;;;5.40;3.53;;;8.60;99.90;;;;;;4161444;28;20030;-57
2024/04/06 02:35:49;;;;;;;6.33;3.60;;;8.60;99.90;;;;;;4161640;28;20080;-54
2024/04/06 02:37:51;;;;;;;9.70;3.37;;;8.60;99.90;;;;;;4159957;28;20041;-55
2024/04/06 02:39:52;;;;;;;4.47;2.70;;;8.60;99.90;;;;;;4161656;28;20037;-55
2024/04/06 02:41:53;;;;;;;9.40;3.40;;;8.60;99.90;;;;;;4160362;28;20107;-50
2024/04/06 02:43:54;;;;;;;5.33;3.50;;;8.60;99.90;;;;;;4161864;28;20141;-52
2024/04/06 02:45:56;;;;;;;8.47;3.23;;;8.60;99.90;;;;;;4160812;28;20504;-57
2024/04/06 02:47:57;;;;;;;4.47;2.90;;;8.70;99.90;;;;;;4161321;28;20087;-50
2024/04/06 02:49:58;;;;;;;8.33;2.87;;;8.70;99.90;;;;;;4160445;28;20387;-54
2024/04/06 02:51:59;;;;;;;6.80;3.37;;;8.70;99.90;;;;;;4161575;28;20038;-54
2024/04/06 02:54:00;;;;;;;5.57;2.83;;;8.70;99.90;;;;;;4160055;28;20482;-57
2024/04/06 02:56:02;;;;;;;5.33;2.60;;;8.70;99.90;;;;;;4160790;28;20083;-57
2024/04/06 02:58:03;;;;;;;6.47;2.83;;;8.70;99.90;;;;;;4160427;28;20422;-56
2024/04/06 03:00:07;;;;;;;4.10;2.63;;;8.70;99.90;;;;;;4161360;28;20038;-55
2024/04/06 03:02:09;;;;;;;5.40;3.63;;;8.60;99.90;;;;;;4160713;28;20034;-57
2024/04/06 03:04:10;;;;;;;4.40;2.97;;;8.60;99.90;;;;;;4160389;28;20037;-57
2024/04/06 03:06:11;;;;;;;6.03;2.80;;;8.60;99.90;;;;;;4161149;28;20034;-55
2024/04/06 03:08:13;;;;;;;5.57;3.30;;;8.60;99.90;;;;;;4159568;28;20046;-55
2024/04/06 03:10:14;;;;;;;7.73;3.03;;;8.60;99.90;;;;;;4160701;28;20045;-55
2024/04/06 03:12:16;;;;;;;4.87;2.70;;;8.60;99.90;;;;;;4159474;28;20468;-57
2024/04/06 03:14:17;;;;;;;4.67;2.70;;;8.60;99.90;;;;;;4161383;28;20099;-54
2024/04/06 03:16:18;;;;;;;9.80;2.60;;;8.60;99.90;;;;;;4159686;28;20201;-58
2024/04/06 03:18:20;;;;;;;6.67;2.97;;;8.60;99.90;;;;;;4160456;28;20049;-56
2024/04/06 03:20:21;;;;;;;5.50;3.53;;;8.70;99.90;;;;;;4160224;28;20542;-56
2024/04/06 03:22:22;;;;;;;6.30;3.33;;;8.70;99.90;;;;;;4160911;28;20045;-60
2024/04/06 03:24:23;;;;;;;6.83;3.13;;;8.70;99.90;;;;;;4160189;28;20033;-56
2024/04/06 03:26:25;;;;;;;7.50;3.00;;;8.80;99.90;;;;;;4161261;28;20424;-55
2024/04/06 03:28:26;;;;;;;5.53;2.90;;;8.80;99.90;;;;;;4160179;28;20420;-54
2024/04/06 03:30:28;;;;;;;6.10;3.20;;;8.90;99.90;;;;;;4160481;28;20037;-57
2024/04/06 03:32:29;;;;;;;9.23;3.57;;;8.90;99.90;;;;;;4160356;28;20026;-57
2024/04/06 03:34:31;;;;;;;6.63;3.83;;;8.90;99.90;;;;;;4160536;28;20068;-56
2024/04/06 03:36:32;;;;;;;6.43;3.60;;;8.90;99.90;;;;;;4160280;28;20061;-59
2024/04/06 03:38:33;;;;;;;7.30;3.10;;;8.90;99.90;;;;;;4159891;28;20033;-57
2024/04/06 03:40:34;;;;;;;6.83;3.53;;;8.90;99.90;;;;;;4160421;28;20022;-54
2024/04/06 03:42:36;;;;;;;7.10;3.17;;;8.90;99.90;;;;;;4159970;28;20029;-55
2024/04/06 03:44:39;;;;;;;4.37;3.57;;;8.90;99.90;;;;;;4161572;28;20045;-53
2024/04/06 03:46:41;;;;;;;4.47;3.10;;;8.80;99.90;;;;;;4159971;28;20171;-56
2024/04/06 03:48:42;;;;;;;6.63;3.07;;;8.80;99.90;;;;;;4160370;28;20045;-55
2024/04/06 03:50:43;;;;;;;4.30;2.70;;;8.80;99.90;;;;;;4159516;28;20038;-55
2024/04/06 03:52:50;;;;;;;4.83;2.77;;;8.80;99.90;;;;;;4160609;28;20095;-56
2024/04/06 03:54:51;;;;;;;4.57;3.20;;;8.80;99.90;;;;;;4159984;28;20025;-55
2024/04/06 03:56:53;;;;;;;7.30;3.27;;;8.80;99.90;;;;;;4160589;28;20068;-57
2024/04/06 03:58:54;;;;;;;5.90;2.67;;;8.80;99.90;;;;;;4159902;28;20030;-55
2024/04/06 04:00:55;;;;;;;3.80;2.67;;;8.80;99.90;;;;;;4160406;28;20034;-53
2024/04/06 04:02:56;;;;;;;9.87;3.43;;;8.80;99.90;;;;;;4159110;28;20413;-52
2024/04/06 04:04:58;;;;;;;7.90;3.77;;;8.90;99.90;;;;;;4159814;28;20034;-54
2024/04/06 04:06:59;;;;;;;5.80;3.37;;;8.90;99.90;;;;;;4159834;28;20049;-55
2024/04/06 04:09:00;;;;;;;4.93;3.13;;;8.90;99.90;;;;;;4159886;28;20055;-57
2024/04/06 04:11:01;;;;;;;6.67;3.00;;;8.90;99.90;;;;;;4159848;28;20083;-55
2024/04/06 04:13:09;;;;;;;6.70;3.20;;;8.90;99.90;;;;;;4159443;28;20034;-57
2024/04/06 04:15:11;;;;;;;6.30;3.70;;;8.90;99.90;;;;;;4160813;28;20854;-53
2024/04/06 04:17:12;;;;;;;7.10;4.30;;;8.90;99.90;;;;;;4159666;28;20033;-51
2024/04/06 04:19:13;;;;;;;8.43;4.30;;;8.90;99.90;;;;;;4160429;28;20155;-54
2024/04/06 04:21:15;;;;;;;11.33;4.27;;;8.90;99.90;;;;;;4159654;28;20025;-57
2024/04/06 04:23:16;;;;;;;8.27;4.20;;;8.90;99.90;;;;;;4160390;28;20115;-58
2024/04/06 04:25:18;;;;;;;9.67;4.60;;;8.90;99.90;;;;;;4159277;28;20466;-54
2024/04/06 04:27:19;;;;;;;6.87;4.57;;;8.90;99.90;;;;;;4159940;28;20456;-50
2024/04/06 04:29:20;;;;;;;9.43;5.20;;;9.00;99.90;;;;;;4162781;28;20033;-54
2024/04/06 04:31:21;;;;;;;6.43;4.60;;;9.00;99.90;;;;;;4162714;28;20490;-54
2024/04/06 04:33:23;;;;;;;11.17;4.83;;;9.10;99.90;;;;;;4162668;28;20470;-57
2024/04/06 04:35:24;;;;;;;8.70;3.93;;;9.10;99.90;;;;;;4163497;28;20029;-52
2024/04/06 04:37:26;;;;;;;7.17;4.20;;;9.10;99.90;;;;;;4161865;28;20046;-52
2024/04/06 04:39:28;;;;;;;6.40;3.83;;;9.10;99.90;;;;;;4162758;28;21068;-57
2024/04/06 04:41:29;;;;;;;10.60;4.30;;;9.00;99.90;;;;;;4162525;28;20033;-54
2024/04/06 04:43:30;;;;;;;11.73;4.43;;;9.00;99.90;;;;;;4162482;28;20144;-56
2024/04/06 04:45:32;;;;;;;8.00;4.20;;;9.00;99.90;;;;;;4162770;28;20392;-53
2024/04/06 04:47:33;;;;;;;9.93;5.00;;;9.00;99.90;;;;;;4161829;28;20119;-56
2024/04/06 04:49:35;;;;;;;20.57;10.93;;;9.00;99.90;;;;;;4163036;28;20037;-54
2024/04/06 04:51:36;;;;;;;13.53;6.97;;;9.00;99.90;;;;;;4161537;28;20144;-57
2024/04/06 04:53:37;;;;;;;9.77;5.13;;;8.90;99.90;;;;;;4163453;28;20025;-56
2024/04/06 04:55:39;;;;;;;7.80;4.77;;;8.90;99.90;;;;;;4161563;28;20057;-56
2024/04/06 04:57:40;;;;;;;7.13;5.00;;;8.90;99.90;;;;;;4162691;28;20440;-55
2024/04/06 04:59:41;;;;;;;10.37;4.60;;;8.90;99.90;;;;;;4155971;28;20057;-54
2024/04/06 05:01:42;;;;;;;10.00;4.83;;;8.90;99.90;;;;;;4163397;28;20087;-55
2024/04/06 05:03:43;;;;;;;7.10;4.40;;;8.80;99.90;;;;;;4161895;28;20456;-56
2024/04/06 05:05:45;;;;;;;6.57;3.93;;;8.80;99.90;;;;;;4163047;28;20417;-57
2024/04/06 05:07:46;;;;;;;8.40;4.30;;;8.80;99.90;;;;;;4161912;28;20566;-55
2024/04/06 05:09:47;;;;;;;10.87;4.80;;;8.80;99.90;;;;;;4162523;28;20049;-53
2024/04/06 05:11:49;;;;;;;7.07;5.50;;;8.80;99.90;;;;;;4162337;28;20088;-54
2024/04/06 05:13:50;;;;;;;10.67;5.47;;;8.90;99.90;;;;;;4162565;28;20034;-57
2024/04/06 05:15:53;;;;;;;8.87;4.87;;;8.90;99.90;;;;;;4162812;28;20115;-55
2024/04/06 05:17:55;;;;;;;8.97;4.90;;;8.90;99.90;;;;;;4160687;28;20051;-58
2024/04/06 05:19:57;;;;;;;10.20;5.67;;;8.90;99.90;;;;;;4162569;28;20472;-57
2024/04/06 05:21:58;;;;;;;9.00;5.50;;;9.00;99.90;;;;;;4160362;28;20045;-55
2024/04/06 05:24:00;;;;;;;9.77;4.90;;;9.00;99.90;;;;;;4161790;28;20041;-54
2024/04/06 05:26:01;;;;;;;11.00;5.67;;;9.00;99.90;;;;;;4158844;28;20751;-55
2024/04/06 05:28:03;;;;;;;13.33;6.23;;;9.10;99.90;;;;;;4157059;28;20038;-55
2024/04/06 05:30:04;;;;;;;11.83;5.80;;;9.10;99.90;;;;;;4154967;28;20436;-55
2024/04/06 05:32:06;;;;;;;15.57;6.10;;;9.10;99.90;;;;;;4150393;28;20107;-56
2024/04/06 05:34:07;;;;;;;11.17;6.50;;;9.20;99.90;;;;;;4161135;28;20037;-56
2024/04/06 05:36:09;;;;;;;12.90;6.97;;;9.20;99.90;;;;;;4151224;28;20662;-57
2024/04/06 05:38:10;;;;;;;10.90;6.97;;;9.30;99.90;;;;;;4157318;28;20030;-58
2024/04/06 05:40:11;;;;;;;12.50;6.80;;;9.40;99.90;;;;;;4151874;28;20123;-59
2024/04/06 05:42:13;;;;;;;14.70;7.40;;;9.60;99.90;;;;;;4161042;28;20129;-57
2024/04/06 05:44:14;;;;;;;15.50;7.10;;;9.70;99.90;;;;;;4162939;28;20391;-59
2024/04/06 05:46:15;;;;;;;14.53;6.20;;;9.90;99.90;;;;;;4161704;28;20030;-53
2024/04/06 05:48:17;;;;;;;12.20;7.27;;;10.20;99.90;;;;;;4161655;28;20042;-58
2024/04/06 05:50:18;;;;;;;10.40;6.23;;;10.50;99.90;;;;;;4162235;28;20034;-56
2024/04/06 05:52:19;;;;;;;13.97;6.93;;;11.00;99.90;;;;;;4161205;28;20386;-57
2024/04/06 05:54:21;;;;;;;7.93;5.67;;;11.40;99.90;;;;;;4161568;28;20371;-58
2024/04/06 05:56:22;;;;;;;8.90;5.27;;;11.70;99.90;;;;;;4160570;28;20050;-59
2024/04/06 05:58:23;;;;;;;11.97;6.50;;;12.10;99.90;;;;;;4162925;28;20083;-58
2024/04/06 06:00:26;;;;;;;11.80;5.60;;;12.30;99.90;;;;;;4161272;28;20099;-57
2024/04/06 06:02:27;;;;;;;11.47;6.00;;;12.60;99.90;;;;;;4162274;28;20091;-56
2024/04/06 06:04:29;;;;;;;11.77;6.60;;;12.60;99.90;;;;;;4160664;28;20088;-57
2024/04/06 06:06:30;;;;;;;13.77;6.73;;;12.70;99.90;;;;;;4162291;28;20037;-55
2024/04/06 06:08:31;;;;;;;17.27;8.17;;;12.80;99.90;;;;;;4161274;28;20049;-55
2024/04/06 06:10:32;;;;;;;10.90;5.83;;;13.10;99.90;;;;;;4161654;28;20163;-58
2024/04/06 06:12:34;;;;;;;10.57;6.37;;;13.40;99.90;;;;;;4160339;28;20041;-57
2024/04/06 06:14:35;;;;;;;9.27;5.00;;;14.00;99.90;;;;;;4161954;28;20367;-59
2024/04/06 06:16:36;;;;;;;9.57;4.57;;;14.40;99.90;;;;;;4161113;28;20115;-60
2024/04/06 06:18:37;;;;;;;9.37;4.90;;;14.90;99.90;;;;;;4161462;28;20064;-60
2024/04/06 06:20:39;;;;;;;12.23;5.40;;;15.30;99.90;;;;;;4162286;28;20041;-62
2024/04/06 06:22:40;;;;;;;9.03;5.33;;;15.80;99.90;;;;;;4160744;28;20056;-56
2024/04/06 06:24:42;;;;;;;12.43;5.90;;;16.40;99.90;;;;;;4161402;28;20037;-58
2024/04/06 06:26:43;;;;;;;12.50;5.85;;;16.90;99.90;;;;;;4160566;28;20041;-60
2024/04/06 06:28:45;;;;;;;10.32;6.18;;;17.10;99.90;;;;;;4161611;28;20033;-57
2024/04/06 06:30:46;;;;;;;10.02;5.38;;;17.20;99.90;;;;;;4160572;28;20107;-58
2024/04/06 06:32:48;;;;;;;11.75;5.70;;;16.80;99.90;;;;;;4159944;28;20114;-59
2024/04/06 06:34:49;;;;;;;12.80;5.70;;;16.60;99.90;;;;;;4160873;28;20103;-61
2024/04/06 06:36:50;;;;;;;9.45;5.28;;;16.60;99.90;;;;;;4161313;28;20528;-60
2024/04/06 06:38:51;;;;;;;11.23;4.88;;;16.50;99.90;;;;;;4160591;28;20076;-59
2024/04/06 06:40:53;;;;;;;8.35;5.70;;;16.60;99.90;;;;;;4161053;28;20543;-60
2024/04/06 06:42:54;;;;;;;9.63;5.53;;;16.50;99.90;;;;;;4160578;28;20920;-60
2024/04/06 06:44:56;;;;;;;8.43;5.47;;;16.60;99.90;;;;;;4161160;28;20053;-51
2024/04/06 06:46:57;;;;;;;12.30;5.78;;;16.60;99.90;;;;;;4160830;28;20099;-54
2024/04/06 06:48:58;;;;;;;8.52;5.47;;;16.50;99.90;;;;;;4159813;28;20054;-55
2024/04/06 06:50:59;;;;;;;10.55;5.25;;;16.40;99.90;;;;;;4160464;28;20026;-54
2024/04/06 06:53:00;;;;;;;7.10;4.50;;;16.60;99.90;;;;;;4160138;28;20702;-52
2024/04/06 06:55:03;;;;;;;8.57;3.75;;;16.10;99.90;;;;;;4160987;28;20033;-52
2024/04/06 06:57:04;;;;;;;6.72;3.83;;;15.80;99.90;;;;;;4159799;28;20107;-56
2024/04/06 06:59:05;;;;;;;6.88;3.88;;;15.90;99.90;;;;;;4161077;28;20033;-53
2024/04/06 07:01:06;;;;;;;8.77;4.30;;;15.90;99.90;;;;;;4160376;28;20503;-60
2024/04/06 07:03:08;;;;;;;4.80;3.80;;;15.90;99.90;;;;;;4161032;28;20080;-59
2024/04/06 07:05:09;;;;;;;7.28;3.78;;;15.50;99.90;;;;;;4159686;28;20537;-57
2024/04/06 07:07:11;;;;;;;5.97;3.70;;;15.40;99.90;;;;;;4160696;28;20464;-54
2024/04/06 07:09:12;;;;;;;9.63;3.80;;;15.50;99.90;;;;;;4159354;28;20401;-60
2024/04/06 07:11:13;;;;;;;4.97;3.53;;;15.80;99.90;;;;;;4161150;28;20037;-56
2024/04/06 07:13:15;;;;;;;7.35;3.35;;;16.00;99.90;;;;;;4159940;28;20038;-55
2024/04/06 07:15:16;;;;;;;8.07;4.15;;;16.00;99.90;;;;;;4160835;28;20033;-58
2024/04/06 07:17:17;;;;;;;4.97;3.20;;;15.90;99.90;;;;;;4160373;28;20864;-58
2024/04/06 07:19:18;;;;;;;7.18;3.83;;;16.00;99.90;;;;;;4159972;28;20041;-57
2024/04/06 07:21:20;;;;;;;4.05;3.53;;;15.70;99.90;;;;;;4161006;28;20456;-57
2024/04/06 07:23:21;;;;;;;3.70;3.10;;;15.50;99.90;;;;;;4159499;28;20033;-58
2024/04/06 07:25:22;;;;;;;6.47;3.75;;;15.70;99.90;;;;;;4160855;28;20026;-56
2024/04/06 07:27:23;;;;;;;6.22;2.92;;;15.70;99.90;;;;;;4159425;28;20088;-57
2024/04/06 07:29:25;;;;;;;8.75;3.92;;;15.70;99.90;;;;;;4159256;28;20045;-58
2024/04/06 07:31:26;;;;;;;6.45;3.97;;;15.60;99.90;;;;;;4159896;28;20103;-58
2024/04/06 07:33:27;;;;;;;8.60;4.05;;;15.50;99.90;;;;;;4161085;28;20038;-57
2024/04/06 07:35:29;;;;;;;9.30;4.68;;;15.50;99.90;;;;;;4156927;28;20049;-53
2024/04/06 07:37:30;;;;;;;8.25;4.35;;;15.60;99.90;;;;;;4160861;28;20083;-57
2024/04/06 07:39:31;;;;;;;7.82;4.78;;;15.70;99.90;;;;;;4160035;28;20022;-54
2024/04/06 07:41:33;;;;;;;10.15;5.20;;;16.00;99.90;;;;;;4160856;28;20535;-56
2024/04/06 07:43:34;;;;;;;11.30;6.15;;;16.00;99.90;;;;;;4159260;28;20060;-57
2024/04/06 07:45:35;;;;;;;9.88;5.95;;;16.00;99.90;;;;;;4160331;28;20559;-54
2024/04/06 07:47:37;;;;;;;8.90;4.55;;;15.90;99.90;;;;;;4159668;28;20029;-55
2024/04/06 07:49:38;;;;;;;6.70;3.47;;;16.10;99.90;;;;;;4159691;28;20026;-57
2024/04/06 07:51:42;;;;;;;5.95;3.30;;;16.10;99.90;;;;;;4159925;28;20034;-57
2024/04/06 07:53:43;;;;;;;7.35;4.18;;;16.10;99.90;;;;;;4158747;28;20095;-53
2024/04/06 07:55:45;;;;;;;7.90;3.33;;;16.20;99.90;;;;;;4160287;28;20049;-56
2024/04/06 07:57:46;;;;;;;6.80;3.22;;;16.30;99.90;;;;;;4159100;28;20053;-55
2024/04/06 07:59:48;;;;;;;5.10;2.45;;;16.40;99.90;;;;;;4160211;28;20083;-54
2024/04/06 08:01:49;;;;;;;2.90;2.55;;;16.50;99.90;;;;;;4159368;28;20041;-57
2024/04/06 08:03:50;;;;;;;2.85;1.83;;;16.60;99.90;;;;;;4162787;28;20441;-53
2024/04/06 08:05:51;;;;;;;6.00;3.50;;;16.60;99.90;;;;;;4163001;28;20428;-54
2024/04/06 08:07:53;;;;;;;8.63;2.97;;;16.40;99.90;;;;;;4163678;28;20045;-56
2024/04/06 08:09:58;;;;;;;4.30;2.42;;;16.50;99.90;;;;;;4162833;28;20049;-56
2024/04/06 08:12:00;;;;;;;3.63;2.00;;;16.60;99.90;;;;;;4164051;28;20030;-59
2024/04/06 08:14:02;;;;;;;2.17;1.92;;;16.60;99.90;;;;;;4162648;28;20416;-60
2024/04/06 08:16:03;;;;;;;3.72;1.77;;;16.60;99.90;;;;;;4163914;28;20478;-55
2024/04/06 08:18:04;;;;;;;5.72;2.00;;;16.50;99.90;;;;;;4162420;28;20415;-57
2024/04/06 08:20:07;;;;;;;4.30;2.58;;;16.40;99.90;;;;;;4162185;28;20532;-56
2024/04/06 08:22:08;;;;;;;4.15;2.40;;;16.40;99.90;;;;;;4162492;28;20045;-55
2024/04/06 08:24:09;;;;;;;5.88;2.53;;;16.50;99.90;;;;;;4161198;28;20075;-55
2024/04/06 08:26:11;;;;;;;4.40;3.00;;;16.60;99.90;;;;;;4163509;28;20099;-54
2024/04/06 08:28:12;;;;;;;5.15;3.22;;;16.60;99.90;;;;;;4161872;28;20042;-53
2024/04/06 08:30:14;;;;;;;9.05;2.92;;;16.50;99.90;;;;;;4162704;28;20053;-57
2024/04/06 08:32:17;;;;;;;7.32;4.30;;;16.50;99.90;;;;;;4156633;28;20076;-60
2024/04/06 08:34:18;;;;;;;7.30;3.05;;;16.60;99.90;;;;;;4163505;28;20456;-54
2024/04/06 08:36:19;;;;;;;5.93;3.63;;;16.70;99.90;;;;;;4161558;28;20446;-57
2024/04/06 08:38:21;;;;;;;6.47;3.65;;;16.70;99.90;;;;;;4162970;28;20099;-58
2024/04/06 08:40:22;;;;;;;5.00;4.20;;;16.90;99.90;;;;;;4162029;28;20045;-58
2024/04/06 08:42:23;;;;;;;4.43;3.40;;;17.00;99.90;;;;;;4163757;28;20033;-58
2024/04/06 08:44:42;;;;;;;5.30;3.10;;;17.10;99.90;;;;;;4162353;28;20029;-54
2024/04/06 08:46:43;;;;;;;5.28;2.90;;;17.10;99.90;;;;;;4163168;28;20042;-60
2024/04/06 08:48:46;;;;;;;4.20;2.90;;;17.20;99.90;;;;;;4162080;28;20466;-59
2024/04/06 08:50:49;;;;;;;4.45;2.92;;;17.10;99.90;;;;;;4162739;28;20417;-56
2024/04/06 08:52:51;;;;;;;7.43;2.85;;;17.10;99.90;;;;;;4162104;28;20045;-56
2024/04/06 08:54:52;;;;;;;4.07;3.00;;;17.20;99.90;;;;;;4162707;28;20025;-58
2024/04/06 08:56:59;;;;;;;7.85;2.67;;;17.20;99.90;;;;;;4161288;28;20046;-58
2024/04/06 08:59:03;;;;;;;5.10;2.33;;;17.30;99.90;;;;;;4161792;28;20041;-57
2024/04/06 09:01:06;;;;;;;5.53;2.58;;;17.40;99.90;;;;;;4161992;28;20025;-58
2024/04/06 09:03:07;;;;;;;4.75;2.60;;;17.50;99.90;;;;;;4161771;28;20119;-56
2024/04/06 09:05:10;;;;;;;5.68;2.60;;;17.50;99.90;;;;;;4162924;28;20021;-55
2024/04/06 09:07:11;;;;;;;5.60;3.10;;;17.50;99.90;;;;;;4161532;28;20095;-55
2024/04/06 09:09:13;;;;;;;4.00;2.60;;;17.60;99.90;;;;;;4162647;28;20049;-53
2024/04/06 09:11:14;;;;;;;6.38;2.70;;;17.60;99.90;;;;;;4161714;28;20394;-57
2024/04/06 09:13:15;;;;;;;6.70;3.20;;;17.60;99.90;;;;;;4163379;28;20025;-53
2024/04/06 09:15:17;;;;;;;5.68;2.55;;;17.60;99.90;;;;;;4160914;28;20030;-56
2024/04/06 09:17:19;;;;;;;6.63;2.72;;;17.50;99.90;;;;;;4162451;28;20481;-54
2024/04/06 09:19:20;;;;;;;7.30;2.85;;;17.50;99.90;;;;;;4161713;28;20045;-56
2024/04/06 09:21:22;;;;;;;6.65;2.60;;;17.60;99.90;;;;;;4162806;28;20034;-57
2024/04/06 09:23:24;;;;;;;3.20;2.33;;;17.60;99.90;;;;;;4161210;28;20045;-56
2024/04/06 09:25:25;;;;;;;9.23;2.83;;;17.60;99.90;;;;;;4163131;28;20099;-53
2024/04/06 09:27:26;;;;;;;4.15;2.25;;;17.70;99.90;;;;;;4161457;28;20056;-55
2024/04/06 09:29:27;;;;;;;3.63;2.20;;;17.60;99.90;;;;;;4162222;28;20037;-55
2024/04/06 09:31:29;;;;;;;4.82;2.40;;;17.60;99.90;;;;;;4161496;28;20049;-55
2024/04/06 09:33:33;;;;;;;6.20;2.92;;;17.50;99.90;;;;;;4161497;28;20053;-55
2024/04/06 09:35:38;;;;;;;5.40;2.78;;;17.40;99.90;;;;;;4161858;28;20049;-56
2024/04/06 09:37:41;;;;;;;3.72;2.33;;;17.30;99.90;;;;;;4161781;28;20045;-57
2024/04/06 09:39:42;;;;;;;5.50;2.10;;;17.20;99.90;;;;;;4162601;28;20037;-55
2024/04/06 09:41:45;;;;;;;9.20;2.67;;;17.00;99.90;;;;;;4161248;28;20030;-54
2024/04/06 09:43:54;;;;;;;5.25;3.60;;;16.80;99.90;;;;;;4162343;28;20464;-57
2024/04/06 09:45:55;;;;;;;8.45;4.97;;;16.40;99.90;;;;;;4162100;28;20076;-56
2024/04/06 09:47:59;;;;;;;15.30;6.05;;;15.50;99.90;;;;;;4162678;28;20393;-56
2024/04/06 09:50:02;;;;;;;7.25;4.93;;;15.00;99.90;;;;;;4161146;28;20042;-55
2024/04/06 09:52:04;;;;;;;10.82;5.43;;;14.70;99.90;;;;;;4162709;28;20088;-54
2024/04/06 09:54:05;;;;;;;6.80;4.88;;;14.50;99.90;;;;;;4160989;28;20394;-54
2024/04/06 09:56:09;;;;;;;6.13;4.80;;;14.30;99.90;;;;;;4162286;28;20448;-57
2024/04/06 09:58:12;;;;;;;4.95;4.20;;;14.10;99.90;;;;;;4161408;28;20091;-58
2024/04/06 10:00:13;;;;;;;7.47;4.85;;;14.00;99.90;;;;;;4161775;28;20045;-57
2024/04/06 10:02:23;;;;;;;5.43;4.07;;;13.70;99.90;;;;;;4161270;28;20033;-54
2024/04/06 10:04:33;;;;;;;7.07;4.35;;;13.70;99.90;;;;;;4162241;28;20080;-53
2024/04/06 10:06:39;;;;;;;9.57;5.28;;;13.50;99.90;;;;;;4160795;28;20474;-57
2024/04/06 10:08:47;;;;;;;8.00;4.78;;;13.50;99.90;;;;;;4161515;28;20145;-56
2024/04/06 10:10:48;;;;;;;8.77;5.15;;;13.40;99.90;;;;;;4161284;28;20038;-57
2024/04/06 10:12:51;;;;;;;6.93;4.30;;;13.50;99.90;;;;;;4161845;28;20081;-59
2024/04/06 10:14:55;;;;;;;6.53;4.55;;;13.50;99.90;;;;;;4161604;28;20037;-55
2024/04/06 10:17:12;;;;;;;5.82;4.47;;;13.50;99.90;;;;;;4161472;28;20057;-57
2024/04/06 10:19:14;;;;;;;6.90;4.68;;;13.40;99.90;;;;;;4160982;28;20029;-53
2024/04/06 10:21:16;;;;;;;7.32;5.03;;;13.40;99.90;;;;;;4161548;28;20048;-55
2024/04/06 10:23:17;;;;;;;8.35;4.95;;;13.40;99.90;;;;;;4160940;28;20449;-56
2024/04/06 10:25:26;;;;;;;10.70;4.70;;;13.40;99.90;;;;;;4160655;28;20571;-57
2024/04/06 10:27:28;;;;;;;9.07;5.78;;;13.30;99.90;;;;;;4161317;28;20481;-53
2024/04/06 10:29:31;;;;;;;8.13;5.70;;;13.30;99.90;;;;;;4160547;28;20444;-55
2024/04/06 10:31:32;;;;;;;8.90;5.73;;;13.30;99.90;;;;;;4161446;28;20123;-57
2024/04/06 10:33:38;;;;;;;7.97;6.38;;;13.30;99.90;;;;;;4160618;28;20033;-56
2024/04/06 10:35:39;;;;;;;9.47;6.67;;;13.30;99.90;;;;;;4162070;28;20351;-53
2024/04/06 10:37:40;;;;;;;10.90;7.00;;;13.30;99.90;;;;;;4160526;28;20029;-54